sensor_id;sensor_type;location;lat;lon;timestamp;pressure;altitude;pressure_sealevel;temperature;humidity
76746;BME280;65671;49.976;20.038;2023-03-31T00:00:29;97212.31;;;9.53;78.30
76746;BME280;65671;49.976;20.038;2023-03-31T00:02:56;97210.34;;;9.54;77.73
76746;BME280;65671;49.976;20.038;2023-03-31T00:05:25;97220.50;;;9.43;77.90
76746;BME280;65671;49.976;20.038;2023-03-31T00:07:55;97213.16;;;9.47;77.77
76746;BME280;65671;49.976;20.038;2023-03-31T00:10:26;97222.38;;;9.49;77.82
76746;BME280;65671;49.976;20.038;2023-03-31T00:12:53;97224.63;;;9.54;78.22
76746;BME280;65671;49.976;20.038;2023-03-31T00:15:18;97218.91;;;9.49;78.33
76746;BME280;65671;49.976;20.038;2023-03-31T00:17:44;97212.44;;;9.39;78.97
76746;BME280;65671;49.976;20.038;2023-03-31T00:20:12;97210.25;;;9.27;79.95
76746;BME280;65671;49.976;20.038;2023-03-31T00:22:39;97212.69;;;9.52;78.78
76746;BME280;65671;49.976;20.038;2023-03-31T00:25:08;97211.59;;;9.46;79.29
76746;BME280;65671;49.976;20.038;2023-03-31T00:27:35;97222.72;;;9.51;78.69
76746;BME280;65671;49.976;20.038;2023-03-31T00:30:00;97217.72;;;9.53;78.25
76746;BME280;65671;49.976;20.038;2023-03-31T00:32:26;97220.84;;;9.48;79.40
76746;BME280;65671;49.976;20.038;2023-03-31T00:34:51;97219.19;;;9.58;78.44
76746;BME280;65671;49.976;20.038;2023-03-31T00:37:17;97212.56;;;9.63;77.99
76746;BME280;65671;49.976;20.038;2023-03-31T00:39:42;97215.38;;;9.56;78.56
76746;BME280;65671;49.976;20.038;2023-03-31T00:42:11;97202.31;;;9.50;79.21
76746;BME280;65671;49.976;20.038;2023-03-31T00:47:50;97213.31;;;9.67;78.46
76746;BME280;65671;49.976;20.038;2023-03-31T00:50:21;97213.31;;;9.67;78.70
76746;BME280;65671;49.976;20.038;2023-03-31T00:53:00;97219.75;;;9.76;77.46
76746;BME280;65671;49.976;20.038;2023-03-31T00:55:42;97204.69;;;9.75;78.29
76746;BME280;65671;49.976;20.038;2023-03-31T00:58:10;97201.91;;;9.82;77.20
76746;BME280;65671;49.976;20.038;2023-03-31T01:00:40;97208.50;;;9.81;77.16
76746;BME280;65671;49.976;20.038;2023-03-31T01:03:07;97209.00;;;9.69;78.49
76746;BME280;65671;49.976;20.038;2023-03-31T01:05:49;97204.72;;;9.72;78.12
76746;BME280;65671;49.976;20.038;2023-03-31T01:08:18;97207.41;;;9.75;77.91
76746;BME280;65671;49.976;20.038;2023-03-31T01:10:52;97213.63;;;9.72;78.83
76746;BME280;65671;49.976;20.038;2023-03-31T01:13:20;97217.06;;;9.76;77.23
76746;BME280;65671;49.976;20.038;2023-03-31T01:15:47;97211.97;;;9.82;77.64
76746;BME280;65671;49.976;20.038;2023-03-31T01:18:13;97206.13;;;9.83;77.24
76746;BME280;65671;49.976;20.038;2023-03-31T01:23:45;97216.59;;;9.81;77.51
76746;BME280;65671;49.976;20.038;2023-03-31T01:35:00;97205.06;;;9.77;76.14
76746;BME280;65671;49.976;20.038;2023-03-31T01:43:22;97203.66;;;9.66;76.88
76746;BME280;65671;49.976;20.038;2023-03-31T01:46:04;97201.31;;;9.68;75.67
76746;BME280;65671;49.976;20.038;2023-03-31T01:57:10;97194.66;;;9.42;76.39
76746;BME280;65671;49.976;20.038;2023-03-31T02:02:55;97206.84;;;9.57;76.54
76746;BME280;65671;49.976;20.038;2023-03-31T02:05:29;97211.09;;;9.58;75.53
76746;BME280;65671;49.976;20.038;2023-03-31T02:08:05;97210.75;;;9.52;76.20
76746;BME280;65671;49.976;20.038;2023-03-31T02:10:34;97217.97;;;9.63;75.87
76746;BME280;65671;49.976;20.038;2023-03-31T02:13:01;97210.75;;;9.52;75.80
76746;BME280;65671;49.976;20.038;2023-03-31T02:15:34;97222.38;;;9.49;75.92
76746;BME280;65671;49.976;20.038;2023-03-31T02:18:03;97213.09;;;9.50;75.65
76746;BME280;65671;49.976;20.038;2023-03-31T02:20:39;97208.50;;;9.47;75.45
76746;BME280;65671;49.976;20.038;2023-03-31T02:23:09;97207.41;;;9.41;76.05
76746;BME280;65671;49.976;20.038;2023-03-31T02:25:50;97199.72;;;9.36;76.14
76746;BME280;65671;49.976;20.038;2023-03-31T02:28:23;97195.50;;;9.35;76.40
76746;BME280;65671;49.976;20.038;2023-03-31T02:33:34;97200.97;;;9.28;76.65
76746;BME280;65671;49.976;20.038;2023-03-31T02:36:01;97192.53;;;9.26;76.40
76746;BME280;65671;49.976;20.038;2023-03-31T02:38:27;97202.94;;;9.24;76.81
76746;BME280;65671;49.976;20.038;2023-03-31T02:40:55;97209.59;;;9.16;77.14
76746;BME280;65671;49.976;20.038;2023-03-31T02:43:21;97206.50;;;9.18;77.16
76746;BME280;65671;49.976;20.038;2023-03-31T02:45:49;97197.28;;;9.12;77.16
76746;BME280;65671;49.976;20.038;2023-03-31T02:48:19;97189.56;;;9.14;76.98
76746;BME280;65671;49.976;20.038;2023-03-31T02:54:10;97200.38;;;9.10;77.52
76746;BME280;65671;49.976;20.038;2023-03-31T02:57:00;97201.03;;;9.21;75.65
76746;BME280;65671;49.976;20.038;2023-03-31T03:10:19;97192.75;;;9.02;76.94
76746;BME280;65671;49.976;20.038;2023-03-31T03:15:30;97199.38;;;8.93;77.98
76746;BME280;65671;49.976;20.038;2023-03-31T03:17:57;97200.69;;;8.78;78.54
76746;BME280;65671;49.976;20.038;2023-03-31T03:20:24;97194.63;;;8.64;78.18
76746;BME280;65671;49.976;20.038;2023-03-31T03:22:49;97195.00;;;8.66;78.08
76746;BME280;65671;49.976;20.038;2023-03-31T03:25:16;97200.78;;;8.68;77.96
76746;BME280;65671;49.976;20.038;2023-03-31T03:27:42;97200.78;;;8.64;78.77
76746;BME280;65671;49.976;20.038;2023-03-31T03:30:10;97204.19;;;8.72;77.79
76746;BME280;65671;49.976;20.038;2023-03-31T03:32:37;97194.97;;;8.69;78.05
76746;BME280;65671;49.976;20.038;2023-03-31T03:35:03;97199.13;;;8.77;77.21
76746;BME280;65671;49.976;20.038;2023-03-31T03:37:31;97194.56;;;8.71;77.75
76746;BME280;65671;49.976;20.038;2023-03-31T03:39:56;97199.84;;;8.85;77.08
76746;BME280;65671;49.976;20.038;2023-03-31T03:42:22;97197.06;;;8.92;77.08
76746;BME280;65671;49.976;20.038;2023-03-31T03:44:48;97200.19;;;8.90;76.75
76746;BME280;65671;49.976;20.038;2023-03-31T03:47:13;97201.34;;;8.89;76.72
76746;BME280;65671;49.976;20.038;2023-03-31T03:49:39;97194.44;;;8.85;77.50
76746;BME280;65671;49.976;20.038;2023-03-31T03:52:05;97189.84;;;8.85;76.92
76746;BME280;65671;49.976;20.038;2023-03-31T03:54:31;97192.13;;;8.83;77.08
76746;BME280;65671;49.976;20.038;2023-03-31T03:56:56;97188.28;;;8.84;76.62
76746;BME280;65671;49.976;20.038;2023-03-31T03:59:22;97182.47;;;8.86;77.09
76746;BME280;65671;49.976;20.038;2023-03-31T04:01:48;97178.31;;;8.78;77.22
76746;BME280;65671;49.976;20.038;2023-03-31T04:04:14;97174.06;;;8.77;76.70
76746;BME280;65671;49.976;20.038;2023-03-31T04:06:41;97164.44;;;8.79;77.78
76746;BME280;65671;49.976;20.038;2023-03-31T04:09:06;97167.88;;;8.80;77.27
76746;BME280;65671;49.976;20.038;2023-03-31T04:11:32;97165.63;;;8.71;77.58
76746;BME280;65671;49.976;20.038;2023-03-31T04:13:58;97163.72;;;8.68;78.33
76746;BME280;65671;49.976;20.038;2023-03-31T04:16:24;97159.91;;;8.66;77.74
76746;BME280;65671;49.976;20.038;2023-03-31T04:18:51;97162.59;;;8.66;78.50
76746;BME280;65671;49.976;20.038;2023-03-31T04:21:21;97158.38;;;8.65;77.92
76746;BME280;65671;49.976;20.038;2023-03-31T04:23:52;97163.34;;;8.70;78.35
76746;BME280;65671;49.976;20.038;2023-03-31T04:26:28;97159.97;;;8.59;78.14
76746;BME280;65671;49.976;20.038;2023-03-31T04:29:15;97158.09;;;8.52;78.81
76746;BME280;65671;49.976;20.038;2023-03-31T04:31:41;97154.59;;;8.59;78.86
76746;BME280;65671;49.976;20.038;2023-03-31T04:34:08;97137.59;;;8.62;78.15
76746;BME280;65671;49.976;20.038;2023-03-31T04:36:41;97135.69;;;8.59;78.62
76746;BME280;65671;49.976;20.038;2023-03-31T04:39:12;97131.81;;;8.60;78.09
76746;BME280;65671;49.976;20.038;2023-03-31T04:41:38;97143.00;;;8.62;78.76
76746;BME280;65671;49.976;20.038;2023-03-31T04:44:04;97142.59;;;8.60;78.00
76746;BME280;65671;49.976;20.038;2023-03-31T04:46:31;97146.81;;;8.68;78.36
76746;BME280;65671;49.976;20.038;2023-03-31T04:48:57;97137.50;;;8.72;78.44
76746;BME280;65671;49.976;20.038;2023-03-31T04:51:24;97142.50;;;8.74;77.45
76746;BME280;65671;49.976;20.038;2023-03-31T04:53:49;97147.06;;;8.77;78.08
76746;BME280;65671;49.976;20.038;2023-03-31T04:56:15;97141.97;;;8.86;78.02
76746;BME280;65671;49.976;20.038;2023-03-31T04:58:41;97136.56;;;8.89;76.73
76746;BME280;65671;49.976;20.038;2023-03-31T05:01:06;97136.97;;;8.88;77.66
76746;BME280;65671;49.976;20.038;2023-03-31T05:03:32;97142.34;;;8.91;77.34
76746;BME280;65671;49.976;20.038;2023-03-31T05:05:58;97143.41;;;8.97;76.51
76746;BME280;65671;49.976;20.038;2023-03-31T05:08:24;97133.88;;;8.86;77.32
76746;BME280;65671;49.976;20.038;2023-03-31T05:10:51;97141.97;;;8.86;77.05
76746;BME280;65671;49.976;20.038;2023-03-31T05:13:17;97131.13;;;8.93;77.37
76746;BME280;65671;49.976;20.038;2023-03-31T05:15:43;97137.59;;;9.03;77.34
76746;BME280;65671;49.976;20.038;2023-03-31T05:18:10;97135.69;;;9.00;76.82
76746;BME280;65671;49.976;20.038;2023-03-31T05:20:35;97131.75;;;9.08;77.37
76746;BME280;65671;49.976;20.038;2023-03-31T05:23:01;97133.47;;;9.25;76.14
76746;BME280;65671;49.976;20.038;2023-03-31T05:25:27;97130.81;;;9.21;76.37
76746;BME280;65671;49.976;20.038;2023-03-31T05:27:57;97138.38;;;9.37;75.49
76746;BME280;65671;49.976;20.038;2023-03-31T05:30:24;97132.25;;;9.33;76.45
76746;BME280;65671;49.976;20.038;2023-03-31T05:32:51;97128.31;;;9.37;75.38
76746;BME280;65671;49.976;20.038;2023-03-31T05:35:17;97130.34;;;9.30;76.21
76746;BME280;65671;49.976;20.038;2023-03-31T05:37:43;97130.75;;;9.28;76.06
76746;BME280;65671;49.976;20.038;2023-03-31T05:40:09;97121.75;;;9.38;76.34
76746;BME280;65671;49.976;20.038;2023-03-31T05:42:35;97118.75;;;9.33;75.94
76746;BME280;65671;49.976;20.038;2023-03-31T05:45:01;97115.28;;;9.32;75.68
76746;BME280;65671;49.976;20.038;2023-03-31T05:47:26;97118.47;;;9.24;75.47
76746;BME280;65671;49.976;20.038;2023-03-31T05:49:52;97103.00;;;9.24;75.75
76746;BME280;65671;49.976;20.038;2023-03-31T05:52:18;97108.09;;;9.19;75.39
76746;BME280;65671;49.976;20.038;2023-03-31T05:54:43;97108.19;;;9.12;75.67
76746;BME280;65671;49.976;20.038;2023-03-31T05:57:09;97112.78;;;9.15;75.57
76746;BME280;65671;49.976;20.038;2023-03-31T05:59:35;97109.81;;;9.36;75.59
76746;BME280;65671;49.976;20.038;2023-03-31T06:02:04;97109.97;;;9.56;74.66
76746;BME280;65671;49.976;20.038;2023-03-31T06:04:30;97111.03;;;9.62;74.01
76746;BME280;65671;49.976;20.038;2023-03-31T06:06:57;97109.63;;;9.80;73.31
76746;BME280;65671;49.976;20.038;2023-03-31T06:09:23;97107.56;;;9.91;72.52
76746;BME280;65671;49.976;20.038;2023-03-31T06:11:50;97101.25;;;9.98;73.35
76746;BME280;65671;49.976;20.038;2023-03-31T06:14:16;97102.91;;;10.19;72.80
76746;BME280;65671;49.976;20.038;2023-03-31T06:16:41;97103.56;;;10.26;72.67
76746;BME280;65671;49.976;20.038;2023-03-31T06:19:07;97101.94;;;10.32;72.93
76746;BME280;65671;49.976;20.038;2023-03-31T06:21:33;97106.53;;;10.35;72.21
76746;BME280;65671;49.976;20.038;2023-03-31T06:23:59;97112.50;;;10.23;72.31
76746;BME280;65671;49.976;20.038;2023-03-31T06:26:24;97101.50;;;10.07;73.05
76746;BME280;65671;49.976;20.038;2023-03-31T06:28:50;97101.78;;;9.89;73.44
76746;BME280;65671;49.976;20.038;2023-03-31T06:31:18;97108.13;;;10.06;72.05
76746;BME280;65671;49.976;20.038;2023-03-31T06:33:45;97106.34;;;10.23;71.35
76746;BME280;65671;49.976;20.038;2023-03-31T06:36:13;97106.34;;;10.23;72.23
76746;BME280;65671;49.976;20.038;2023-03-31T06:38:40;97107.75;;;10.31;72.05
76746;BME280;65671;49.976;20.038;2023-03-31T06:41:06;97109.81;;;10.46;70.93
76746;BME280;65671;49.976;20.038;2023-03-31T06:43:32;97105.38;;;10.59;71.66
76746;BME280;65671;49.976;20.038;2023-03-31T06:45:59;97105.03;;;10.31;72.76
76746;BME280;65671;49.976;20.038;2023-03-31T06:48:26;97106.00;;;10.44;71.14
76746;BME280;65671;49.976;20.038;2023-03-31T06:50:53;97111.19;;;10.58;70.24
76746;BME280;65671;49.976;20.038;2023-03-31T06:53:18;97101.22;;;10.75;70.31
76746;BME280;65671;49.976;20.038;2023-03-31T06:55:44;97104.41;;;10.70;71.62
76746;BME280;65671;49.976;20.038;2023-03-31T06:58:10;97105.13;;;10.74;70.70
76746;BME280;65671;49.976;20.038;2023-03-31T07:00:36;97109.94;;;10.86;70.65
76746;BME280;65671;49.976;20.038;2023-03-31T07:03:03;97106.63;;;10.98;68.23
76746;BME280;65671;49.976;20.038;2023-03-31T07:05:30;97111.50;;;11.06;67.48
76746;BME280;65671;49.976;20.038;2023-03-31T07:07:58;97103.31;;;11.10;68.17
76746;BME280;65671;49.976;20.038;2023-03-31T07:10:26;97108.56;;;11.17;66.64
76746;BME280;65671;49.976;20.038;2023-03-31T07:12:52;97104.19;;;11.23;66.92
76746;BME280;65671;49.976;20.038;2023-03-31T07:15:18;97102.31;;;11.20;67.53
76746;BME280;65671;49.976;20.038;2023-03-31T07:17:44;97103.91;;;11.37;66.53
76746;BME280;65671;49.976;20.038;2023-03-31T07:20:11;97099.25;;;11.38;65.16
76746;BME280;65671;49.976;20.038;2023-03-31T07:22:39;97104.81;;;11.50;66.53
76746;BME280;65671;49.976;20.038;2023-03-31T07:25:06;97094.09;;;11.43;66.69
76746;BME280;65671;49.976;20.038;2023-03-31T07:27:32;97084.66;;;11.71;65.62
76746;BME280;65671;49.976;20.038;2023-03-31T07:29:57;97090.00;;;11.74;65.42
76746;BME280;65671;49.976;20.038;2023-03-31T07:32:23;97089.84;;;11.82;63.79
76746;BME280;65671;49.976;20.038;2023-03-31T07:34:48;97079.22;;;11.71;63.53
76746;BME280;65671;49.976;20.038;2023-03-31T07:37:14;97076.78;;;11.93;65.31
76746;BME280;65671;49.976;20.038;2023-03-31T07:39:39;97077.47;;;11.97;67.28
76746;BME280;65671;49.976;20.038;2023-03-31T07:42:05;97075.22;;;11.95;62.12
76746;BME280;65671;49.976;20.038;2023-03-31T07:44:34;97068.84;;;12.02;62.80
76746;BME280;65671;49.976;20.038;2023-03-31T07:47:00;97067.91;;;12.08;60.84
76746;BME280;65671;49.976;20.038;2023-03-31T07:49:32;97068.53;;;12.16;63.33
76746;BME280;65671;49.976;20.038;2023-03-31T07:51:59;97069.53;;;12.22;61.95
76746;BME280;65671;49.976;20.038;2023-03-31T07:54:25;97074.63;;;12.04;61.73
76746;BME280;65671;49.976;20.038;2023-03-31T07:56:51;97073.72;;;11.74;62.76
76746;BME280;65671;49.976;20.038;2023-03-31T07:59:17;97077.34;;;12.04;63.17
76746;BME280;65671;49.976;20.038;2023-03-31T08:01:44;97066.56;;;12.32;62.62
76746;BME280;65671;49.976;20.038;2023-03-31T08:04:11;97068.69;;;12.09;63.08
76746;BME280;65671;49.976;20.038;2023-03-31T08:06:38;97064.84;;;11.90;61.45
76746;BME280;65671;49.976;20.038;2023-03-31T08:09:05;97073.66;;;11.94;62.12
76746;BME280;65671;49.976;20.038;2023-03-31T08:11:33;97061.88;;;12.17;62.72
76746;BME280;65671;49.976;20.038;2023-03-31T08:13:59;97057.13;;;12.05;63.68
76746;BME280;65671;49.976;20.038;2023-03-31T08:16:25;97054.94;;;12.32;63.21
76746;BME280;65671;49.976;20.038;2023-03-31T08:18:50;97044.56;;;12.43;62.36
76746;BME280;65671;49.976;20.038;2023-03-31T08:21:16;97052.25;;;12.77;61.72
76746;BME280;65671;49.976;20.038;2023-03-31T08:23:42;97044.38;;;12.66;62.57
76746;BME280;65671;49.976;20.038;2023-03-31T08:26:15;97040.28;;;12.29;61.70
76746;BME280;65671;49.976;20.038;2023-03-31T08:28:46;97040.53;;;12.64;62.71
76746;BME280;65671;49.976;20.038;2023-03-31T08:31:16;97030.84;;;12.34;62.28
76746;BME280;65671;49.976;20.038;2023-03-31T08:33:44;97036.66;;;12.65;62.19
76746;BME280;65671;49.976;20.038;2023-03-31T08:36:11;97039.56;;;12.86;62.92
76746;BME280;65671;49.976;20.038;2023-03-31T08:38:41;97024.91;;;13.13;62.59
76746;BME280;65671;49.976;20.038;2023-03-31T08:45:05;97018.19;;;13.30;59.79
76746;BME280;65671;49.976;20.038;2023-03-31T08:47:08;97012.34;;;13.44;60.38
76746;BME280;65671;49.976;20.038;2023-03-31T08:49:47;97006.75;;;13.10;60.31
76746;BME280;65671;49.976;20.038;2023-03-31T08:52:28;97006.56;;;13.01;59.04
76746;BME280;65671;49.976;20.038;2023-03-31T08:54:58;96997.06;;;12.80;58.95
76746;BME280;65671;49.976;20.038;2023-03-31T08:58:00;96995.91;;;12.94;59.85
76746;BME280;65671;49.976;20.038;2023-03-31T09:00:38;96998.28;;;12.92;60.28
76746;BME280;65671;49.976;20.038;2023-03-31T09:03:14;96984.91;;;13.26;59.60
76746;BME280;65671;49.976;20.038;2023-03-31T09:05:48;96981.66;;;13.31;58.58
76746;BME280;65671;49.976;20.038;2023-03-31T09:08:25;96988.44;;;13.52;58.31
76746;BME280;65671;49.976;20.038;2023-03-31T09:11:03;96979.50;;;12.97;58.52
76746;BME280;65671;49.976;20.038;2023-03-31T09:16:16;96972.22;;;13.61;57.34
76746;BME280;65671;49.976;20.038;2023-03-31T09:18:47;96962.22;;;13.58;57.81
76746;BME280;65671;49.976;20.038;2023-03-31T09:21:28;96966.25;;;14.13;56.25
76746;BME280;65671;49.976;20.038;2023-03-31T09:24:29;96968.38;;;14.30;56.81
76746;BME280;65671;49.976;20.038;2023-03-31T09:26:56;96961.91;;;14.03;55.20
76746;BME280;65671;49.976;20.038;2023-03-31T09:29:29;96960.97;;;14.43;54.25
76746;BME280;65671;49.976;20.038;2023-03-31T09:32:00;96940.31;;;14.77;51.83
76746;BME280;65671;49.976;20.038;2023-03-31T09:34:28;96954.53;;;14.72;55.38
76746;BME280;65671;49.976;20.038;2023-03-31T09:36:55;96943.56;;;14.84;55.44
76746;BME280;65671;49.976;20.038;2023-03-31T09:39:21;96940.38;;;15.07;53.09
76746;BME280;65671;49.976;20.038;2023-03-31T09:41:49;96926.97;;;15.53;54.03
76746;BME280;65671;49.976;20.038;2023-03-31T09:46:55;96924.28;;;15.31;53.93
76746;BME280;65671;49.976;20.038;2023-03-31T09:49:26;96905.22;;;15.40;51.04
76746;BME280;65671;49.976;20.038;2023-03-31T09:52:05;96905.53;;;15.82;50.85
76746;BME280;65671;49.976;20.038;2023-03-31T09:54:37;96900.34;;;15.66;52.48
76746;BME280;65671;49.976;20.038;2023-03-31T09:57:37;96895.03;;;15.32;53.19
76746;BME280;65671;49.976;20.038;2023-03-31T10:02:41;96889.19;;;14.59;52.09
76746;BME280;65671;49.976;20.038;2023-03-31T10:05:30;96887.63;;;14.49;52.99
76746;BME280;65671;49.976;20.038;2023-03-31T10:10:47;96880.44;;;14.86;51.79
76746;BME280;65671;49.976;20.038;2023-03-31T10:13:16;96890.03;;;15.30;52.52
76746;BME280;65671;49.976;20.038;2023-03-31T10:15:43;96876.13;;;15.06;51.73
76746;BME280;65671;49.976;20.038;2023-03-31T10:18:13;96882.84;;;14.84;52.66
76746;BME280;65671;49.976;20.038;2023-03-31T10:20:51;96868.56;;;15.01;51.85
76746;BME280;65671;49.976;20.038;2023-03-31T10:23:28;96872.00;;;15.33;52.05
76746;BME280;65671;49.976;20.038;2023-03-31T10:25:54;96867.53;;;15.48;53.00
76746;BME280;65671;49.976;20.038;2023-03-31T10:28:20;96859.59;;;15.90;51.00
76746;BME280;65671;49.976;20.038;2023-03-31T10:30:57;96860.91;;;15.58;50.55
76746;BME280;65671;49.976;20.038;2023-03-31T10:33:30;96862.88;;;15.27;50.28
76746;BME280;65671;49.976;20.038;2023-03-31T10:36:06;96855.63;;;15.33;50.31
76746;BME280;65671;49.976;20.038;2023-03-31T10:38:36;96853.34;;;15.71;50.46
76746;BME280;65671;49.976;20.038;2023-03-31T10:41:04;96854.56;;;15.79;48.93
76746;BME280;65671;49.976;20.038;2023-03-31T10:43:50;96847.28;;;16.03;48.58
76746;BME280;65671;49.976;20.038;2023-03-31T10:46:17;96846.72;;;16.27;50.54
76746;BME280;65671;49.976;20.038;2023-03-31T10:48:42;96842.75;;;16.18;50.11
76746;BME280;65671;49.976;20.038;2023-03-31T10:53:51;96833.06;;;15.99;49.04
76746;BME280;65671;49.976;20.038;2023-03-31T10:59:20;96826.22;;;16.04;48.98
76746;BME280;65671;49.976;20.038;2023-03-31T11:07:45;96818.19;;;17.29;47.50
76746;BME280;65671;49.976;20.038;2023-03-31T11:13:15;96818.88;;;16.73;49.07
76746;BME280;65671;49.976;20.038;2023-03-31T11:18:42;96804.34;;;16.22;47.65
76746;BME280;65671;49.976;20.038;2023-03-31T11:41:18;96793.03;;;14.80;48.92
76746;BME280;65671;49.976;20.038;2023-03-31T11:43:50;96786.09;;;14.48;51.25
76746;BME280;65671;49.976;20.038;2023-03-31T11:46:24;96782.59;;;14.48;50.10
76746;BME280;65671;49.976;20.038;2023-03-31T11:48:58;96776.34;;;14.38;49.93
76746;BME280;65671;49.976;20.038;2023-03-31T11:53:53;96776.53;;;14.75;49.42
76746;BME280;65671;49.976;20.038;2023-03-31T11:56:21;96779.72;;;14.82;52.24
76746;BME280;65671;49.976;20.038;2023-03-31T11:58:51;96768.09;;;14.82;49.64
76746;BME280;65671;49.976;20.038;2023-03-31T12:01:28;96762.66;;;14.91;51.29
76746;BME280;65671;49.976;20.038;2023-03-31T12:04:19;96765.94;;;15.26;50.46
76746;BME280;65671;49.976;20.038;2023-03-31T12:06:51;96769.00;;;15.46;48.11
76746;BME280;65671;49.976;20.038;2023-03-31T12:12:05;96760.25;;;15.60;48.55
76746;BME280;65671;49.976;20.038;2023-03-31T12:14:47;96750.81;;;15.97;49.11
76746;BME280;65671;49.976;20.038;2023-03-31T12:17:21;96744.31;;;16.04;47.22
76746;BME280;65671;49.976;20.038;2023-03-31T12:19:51;96748.06;;;16.25;48.69
76746;BME280;65671;49.976;20.038;2023-03-31T12:22:23;96746.13;;;16.07;47.54
76746;BME280;65671;49.976;20.038;2023-03-31T12:24:51;96735.34;;;16.03;47.49
76746;BME280;65671;49.976;20.038;2023-03-31T12:27:27;96740.38;;;15.87;47.73
76746;BME280;65671;49.976;20.038;2023-03-31T12:30:00;96741.44;;;15.80;48.99
76746;BME280;65671;49.976;20.038;2023-03-31T12:32:30;96734.94;;;15.69;48.88
76746;BME280;65671;49.976;20.038;2023-03-31T12:35:04;96724.16;;;15.65;47.81
76746;BME280;65671;49.976;20.038;2023-03-31T12:40:30;96705.63;;;15.42;49.23
76746;BME280;65671;49.976;20.038;2023-03-31T12:45:49;96696.28;;;15.52;49.04
76746;BME280;65671;49.976;20.038;2023-03-31T12:54:05;96686.28;;;15.76;47.79
76746;BME280;65671;49.976;20.038;2023-03-31T12:57:03;96685.00;;;16.04;47.52
76746;BME280;65671;49.976;20.038;2023-03-31T12:59:35;96689.53;;;16.07;46.76
76746;BME280;65671;49.976;20.038;2023-03-31T13:04:39;96670.56;;;16.13;45.23
76746;BME280;65671;49.976;20.038;2023-03-31T13:07:36;96675.16;;;16.40;46.58
76746;BME280;65671;49.976;20.038;2023-03-31T13:10:25;96661.22;;;16.38;45.38
76746;BME280;65671;49.976;20.038;2023-03-31T13:13:13;96655.22;;;16.57;47.80
76746;BME280;65671;49.976;20.038;2023-03-31T13:15:50;96649.38;;;16.41;47.49
76746;BME280;65671;49.976;20.038;2023-03-31T13:18:20;96646.81;;;15.86;46.63
76746;BME280;65671;49.976;20.038;2023-03-31T13:21:06;96647.88;;;15.80;48.05
76746;BME280;65671;49.976;20.038;2023-03-31T13:23:34;96642.25;;;15.83;46.80
76746;BME280;65671;49.976;20.038;2023-03-31T13:26:00;96641.53;;;16.25;46.61
76746;BME280;65671;49.976;20.038;2023-03-31T13:28:31;96634.28;;;16.54;47.65
76746;BME280;65671;49.976;20.038;2023-03-31T13:30:58;96632.00;;;16.62;47.15
76746;BME280;65671;49.976;20.038;2023-03-31T13:46:55;96591.56;;;16.00;48.24
76746;BME280;65671;49.976;20.038;2023-03-31T13:52:10;96590.78;;;15.31;48.91
76746;BME280;65671;49.976;20.038;2023-03-31T14:05:30;96576.72;;;14.96;51.02
76746;BME280;65671;49.976;20.038;2023-03-31T14:08:10;96593.28;;;14.34;54.19
76746;BME280;65671;49.976;20.038;2023-03-31T14:10:39;96592.75;;;13.56;59.44
76746;BME280;65671;49.976;20.038;2023-03-31T14:13:18;96582.78;;;13.10;63.46
76746;BME280;65671;49.976;20.038;2023-03-31T14:15:48;96578.78;;;13.02;61.50
76746;BME280;65671;49.976;20.038;2023-03-31T14:18:27;96574.97;;;12.99;64.13
76746;BME280;65671;49.976;20.038;2023-03-31T14:34:59;96546.72;;;14.02;54.47
76746;BME280;65671;49.976;20.038;2023-03-31T14:37:29;96550.66;;;14.01;51.08
76746;BME280;65671;49.976;20.038;2023-03-31T14:39:56;96555.63;;;13.93;51.95
76746;BME280;65671;49.976;20.038;2023-03-31T14:42:28;96548.31;;;13.81;51.94
76746;BME280;65671;49.976;20.038;2023-03-31T14:45:01;96554.34;;;13.85;50.28
76746;BME280;65671;49.976;20.038;2023-03-31T14:47:28;96555.66;;;13.71;52.01
76746;BME280;65671;49.976;20.038;2023-03-31T14:50:16;96554.84;;;13.62;52.67
76746;BME280;65671;49.976;20.038;2023-03-31T14:52:50;96553.03;;;13.59;51.69
76746;BME280;65671;49.976;20.038;2023-03-31T14:55:21;96556.28;;;13.45;52.24
76746;BME280;65671;49.976;20.038;2023-03-31T14:57:49;96548.53;;;13.34;52.22
76746;BME280;65671;49.976;20.038;2023-03-31T15:00:24;96539.59;;;13.33;52.17
76746;BME280;65671;49.976;20.038;2023-03-31T15:02:51;96548.84;;;13.36;52.35
76746;BME280;65671;49.976;20.038;2023-03-31T15:05:36;96544.88;;;13.28;52.71
76746;BME280;65671;49.976;20.038;2023-03-31T15:08:09;96535.06;;;13.09;54.90
76746;BME280;65671;49.976;20.038;2023-03-31T15:10:42;96531.81;;;13.01;56.34
76746;BME280;65671;49.976;20.038;2023-03-31T15:13:15;96526.28;;;13.05;54.61
76746;BME280;65671;49.976;20.038;2023-03-31T15:15:43;96525.94;;;13.03;55.24
76746;BME280;65671;49.976;20.038;2023-03-31T15:18:14;96516.13;;;13.05;54.98
76746;BME280;65671;49.976;20.038;2023-03-31T15:20:42;96514.31;;;13.02;55.94
76746;BME280;65671;49.976;20.038;2023-03-31T15:23:26;96497.88;;;13.06;55.65
76746;BME280;65671;49.976;20.038;2023-03-31T15:25:57;96498.56;;;12.97;56.59
76746;BME280;65671;49.976;20.038;2023-03-31T15:28:26;96502.19;;;12.94;56.94
76746;BME280;65671;49.976;20.038;2023-03-31T15:30:54;96495.38;;;12.90;56.72
76746;BME280;65671;49.976;20.038;2023-03-31T15:33:30;96481.59;;;12.84;57.15
76746;BME280;65671;49.976;20.038;2023-03-31T15:35:57;96484.50;;;12.90;57.35
76746;BME280;65671;49.976;20.038;2023-03-31T15:38:26;96490.47;;;12.84;56.23
76746;BME280;65671;49.976;20.038;2023-03-31T15:40:54;96484.88;;;12.79;57.41
76746;BME280;65671;49.976;20.038;2023-03-31T15:43:41;96489.50;;;12.69;57.83
76746;BME280;65671;49.976;20.038;2023-03-31T15:46:15;96482.16;;;12.57;57.26
76746;BME280;65671;49.976;20.038;2023-03-31T15:48:53;96480.31;;;12.54;58.95
76746;BME280;65671;49.976;20.038;2023-03-31T15:51:36;96473.25;;;12.57;57.45
76746;BME280;65671;49.976;20.038;2023-03-31T15:54:30;96478.69;;;12.57;56.81